www.cux-wetter.de
Wetterdaten: Samstag, 21.01.2012
Datum Zeit Temp. A. Feuchte A. Luftdruck Regen Wind Richtung Richtung Sonnenschein Solar Taupunkt Windchill Windben
21.01.2012 00:00 4,5 C 88 % 1009,5 hPa 0,0 l/m 23,0 km/h (4 Bft) NW 320 0 min 0 W/m 2,7 C -4,9 C 23,0 km/h (4 Bft)
21.01.2012 00:15 4,6 C 87 % 1009,5 hPa 0,0 l/m 18,1 km/h (3 Bft) NW 305 0 min 0 W/m 2,6 C -2,9 C 18,1 km/h (3 Bft)
21.01.2012 00:30 4,7 C 88 % 1009,5 hPa 0,0 l/m 18,8 km/h (3 Bft) NW 320 0 min 0 W/m 2,9 C -3,1 C 18,8 km/h (3 Bft)
21.01.2012 00:45 4,7 C 88 % 1009,5 hPa 0,0 l/m 16,4 km/h (3 Bft) NW 320 0 min 0 W/m 2,9 C -2,0 C 16,4 km/h (3 Bft)
21.01.2012 01:00 4,7 C 88 % 1009,5 hPa 0,0 l/m 16,8 km/h (3 Bft) NW 305 0 min 0 W/m 2,9 C -2,2 C 16,8 km/h (3 Bft)
21.01.2012 01:15 4,6 C 88 % 1009,5 hPa 0,0 l/m 17,1 km/h (3 Bft) NW 320 0 min 0 W/m 2,8 C -2,4 C 17,1 km/h (3 Bft)
21.01.2012 01:30 4,6 C 88 % 1009,5 hPa 0,0 l/m 13,8 km/h (3 Bft) NW 310 0 min 0 W/m 2,8 C -0,8 C 13,8 km/h (3 Bft)
21.01.2012 01:45 4,5 C 88 % 1009,5 hPa 0,0 l/m 12,0 km/h (2 Bft) W-NW 300 0 min 0 W/m 2,7 C 0,2 C 12,0 km/h (2 Bft)
21.01.2012 02:00 4,5 C 88 % 1009,5 hPa 0,0 l/m 12,5 km/h (2 Bft) NW 310 0 min 0 W/m 2,7 C -0,1 C 12,5 km/h (2 Bft)
21.01.2012 02:15 4,4 C 88 % 1009,5 hPa 0,0 l/m 11,5 km/h (2 Bft) W-NW 295 0 min 0 W/m 2,6 C 0,4 C 11,5 km/h (2 Bft)
21.01.2012 02:30 4,3 C 88 % 1009,5 hPa 0,0 l/m 7,6 km/h (2 Bft) W 260 0 min 0 W/m 2,5 C 3,2 C 7,6 km/h (2 Bft)
21.01.2012 02:45 4,1 C 88 % 1009,5 hPa 0,0 l/m 7,9 km/h (2 Bft) W 260 0 min 0 W/m 2,3 C 2,7 C 7,9 km/h (2 Bft)
21.01.2012 03:00 4,1 C 89 % 1009,5 hPa 0,0 l/m 19,3 km/h (3 Bft) W 275 0 min 0 W/m 2,5 C -4,0 C 19,3 km/h (3 Bft)
21.01.2012 03:15 3,9 C 90 % 1008,5 hPa 0,0 l/m 15,6 km/h (3 Bft) W 270 0 min 0 W/m 2,4 C -2,6 C 15,6 km/h (3 Bft)
21.01.2012 03:30 3,9 C 90 % 1008,5 hPa 0,0 l/m 24,3 km/h (4 Bft) W 260 0 min 0 W/m 2,4 C -6,2 C 24,3 km/h (4 Bft)
21.01.2012 03:45 3,8 C 90 % 1008,5 hPa 0,0 l/m 21,5 km/h (4 Bft) W 260 0 min 0 W/m 2,3 C -5,3 C 21,5 km/h (4 Bft)
21.01.2012 03:59 3,7 C 90 % 1008,5 hPa 0,0 l/m 26,8 km/h (4 Bft) W 265 0 min 0 W/m 2,2 C -7,3 C 26,8 km/h (4 Bft)
21.01.2012 04:15 3,6 C 91 % 1008,5 hPa 0,0 l/m 33,5 km/h (5 Bft) W 260 0 min 0 W/m 2,3 C -9,2 C 33,5 km/h (5 Bft)
21.01.2012 04:30 3,5 C 91 % 1007,5 hPa 0,0 l/m 24,5 km/h (4 Bft) W 260 0 min 0 W/m 2,2 C -6,8 C 24,5 km/h (4 Bft)
21.01.2012 04:45 3,3 C 91 % 1006,5 hPa 0,0 l/m 26,0 km/h (4 Bft) W 260 0 min 0 W/m 2,0 C -7,6 C 26,0 km/h (4 Bft)
21.01.2012 05:00 3,3 C 91 % 1006,5 hPa 0,0 l/m 27,4 km/h (5 Bft) W 265 0 min 0 W/m 2,0 C -8,0 C 27,4 km/h (5 Bft)
21.01.2012 05:15 3,3 C 91 % 1006,5 hPa 0,0 l/m 27,3 km/h (5 Bft) W 265 0 min 0 W/m 2,0 C -8,0 C 27,3 km/h (5 Bft)
21.01.2012 05:30 3,3 C 91 % 1006,5 hPa 0,0 l/m 27,3 km/h (5 Bft) W 270 0 min 0 W/m 2,0 C -8,0 C 27,3 km/h (5 Bft)
21.01.2012 05:45 3,3 C 91 % 1005,5 hPa 0,0 l/m 28,5 km/h (5 Bft) W 265 0 min 0 W/m 2,0 C -8,3 C 28,5 km/h (5 Bft)
21.01.2012 06:00 3,3 C 91 % 1005,5 hPa 0,0 l/m 26,7 km/h (4 Bft) W-SW 255 0 min 0 W/m 2,0 C -7,8 C 26,7 km/h (4 Bft)
21.01.2012 06:14 3,4 C 91 % 1005,5 hPa 0,0 l/m 24,8 km/h (4 Bft) W-SW 250 0 min 0 W/m 2,1 C -7,0 C 24,8 km/h (4 Bft)
21.01.2012 06:30 3,5 C 91 % 1004,5 hPa 0,0 l/m 19,1 km/h (3 Bft) SW 230 0 min 0 W/m 2,2 C -4,7 C 19,1 km/h (3 Bft)
21.01.2012 06:45 3,6 C 91 % 1004,5 hPa 0,0 l/m 22,6 km/h (4 Bft) W-SW 240 0 min 0 W/m 2,3 C -6,0 C 22,6 km/h (4 Bft)
21.01.2012 07:00 3,5 C 90 % 1003,5 hPa 0,0 l/m 27,6 km/h (5 Bft) W-SW 245 0 min 0 W/m 2,0 C -7,8 C 27,6 km/h (5 Bft)
21.01.2012 07:15 3,5 C 90 % 1003,5 hPa 0,0 l/m 28,5 km/h (5 Bft) W-SW 255 0 min 0 W/m 2,0 C -8,1 C 28,5 km/h (5 Bft)
21.01.2012 07:29 3,3 C 91 % 1002,5 hPa 0,3 l/m 33,8 km/h (5 Bft) W-SW 240 0 min 0 W/m 2,0 C -9,7 C 33,8 km/h (5 Bft)
21.01.2012 07:45 3,2 C 91 % 1002,5 hPa 0,3 l/m 29,3 km/h (5 Bft) W-SW 255 0 min 0 W/m 1,9 C -8,7 C 29,3 km/h (5 Bft)
21.01.2012 08:00 3,1 C 91 % 1001,5 hPa 0,3 l/m 29,5 km/h (5 Bft) W-SW 255 0 min 0 W/m 1,8 C -8,9 C 29,5 km/h (5 Bft)
21.01.2012 08:15 2,9 C 91 % 1001,5 hPa 0,3 l/m 33,7 km/h (5 Bft) SW 220 0 min 0 W/m 1,6 C -10,3 C 33,7 km/h (5 Bft)
21.01.2012 08:30 2,6 C 90 % 1000,5 hPa 0,3 l/m 31,2 km/h (5 Bft) SW 225 0 min 0 W/m 1,1 C -10,1 C 31,2 km/h (5 Bft)
21.01.2012 08:45 2,4 C 90 % 1000,5 hPa 0,3 l/m 24,6 km/h (4 Bft) S-SW 210 0 min 0 W/m 0,9 C -8,3 C 24,6 km/h (4 Bft)
21.01.2012 09:00 2,5 C 91 % 999,5 hPa 0,3 l/m 33,0 km/h (5 Bft) SW 215 0 min 0 W/m 1,2 C -10,7 C 33,0 km/h (5 Bft)
21.01.2012 09:15 2,7 C 91 % 998,5 hPa 0,6 l/m 34,9 km/h (5 Bft) SW 220 0 min 0 W/m 1,4 C -10,9 C 34,9 km/h (5 Bft)
21.01.2012 09:30 2,9 C 92 % 998,5 hPa 0,0 l/m 32,9 km/h (5 Bft) SW 235 0 min 0 W/m 1,7 C -10,1 C 32,9 km/h (5 Bft)
21.01.2012 09:45 2,9 C 92 % 997,5 hPa 0,3 l/m 38,6 km/h (6 Bft) SW 225 0 min 0 W/m 1,7 C -11,4 C 38,6 km/h (6 Bft)
21.01.2012 10:00 3,0 C 92 % 997,5 hPa 0,3 l/m 39,7 km/h (6 Bft) SW 215 0 min 0 W/m 1,8 C -11,4 C 39,7 km/h (6 Bft)
21.01.2012 10:15 3,3 C 93 % 996,5 hPa 0,0 l/m 35,0 km/h (5 Bft) W-SW 250 0 min 0 W/m 2,3 C -10,0 C 35,0 km/h (5 Bft)
21.01.2012 10:30 3,5 C 93 % 996,5 hPa 0,6 l/m 30,9 km/h (5 Bft) SW 230 0 min 0 W/m 2,5 C -8,7 C 30,9 km/h (5 Bft)
21.01.2012 10:45 3,7 C 94 % 995,5 hPa 0,0 l/m 37,4 km/h (5 Bft) SW 235 0 min 0 W/m 2,8 C -9,9 C 37,4 km/h (5 Bft)
21.01.2012 11:00 4,1 C 94 % 995,5 hPa 0,3 l/m 36,9 km/h (5 Bft) W-SW 240 0 min 0 W/m 3,2 C -9,3 C 36,9 km/h (5 Bft)
21.01.2012 11:15 4,5 C 95 % 995,5 hPa 0,0 l/m 39,3 km/h (6 Bft) W-SW 255 0 min 0 W/m 3,8 C -9,1 C 39,3 km/h (6 Bft)
21.01.2012 11:29 5,4 C 96 % 995,5 hPa 0,3 l/m 38,7 km/h (6 Bft) W 260 0 min 0 W/m 4,8 C -7,7 C 38,7 km/h (6 Bft)
21.01.2012 11:45 6,0 C 96 % 994,5 hPa 0,0 l/m 34,8 km/h (5 Bft) W-NW 285 0 min 0 W/m 5,4 C -6,1 C 34,8 km/h (5 Bft)
21.01.2012 12:00 6,5 C 96 % 994,5 hPa 0,0 l/m 34,2 km/h (5 Bft) W-NW 290 0 min 0 W/m 5,9 C -5,2 C 34,2 km/h (5 Bft)
21.01.2012 12:15 6,6 C 96 % 994,5 hPa 0,0 l/m 33,7 km/h (5 Bft) W-NW 285 0 min 0 W/m 6,0 C -5,0 C 33,7 km/h (5 Bft)
21.01.2012 12:30 6,6 C 96 % 993,5 hPa 0,0 l/m 31,3 km/h (5 Bft) NW 305 0 min 0 W/m 6,0 C -4,4 C 31,3 km/h (5 Bft)
21.01.2012 12:45 6,6 C 95 % 993,5 hPa 0,0 l/m 38,0 km/h (6 Bft) NW 310 0 min 0 W/m 5,9 C -5,8 C 38,0 km/h (6 Bft)
21.01.2012 13:00 6,6 C 94 % 993,5 hPa 0,0 l/m 40,0 km/h (6 Bft) NW 305 0 min 0 W/m 5,7 C -6,1 C 40,0 km/h (6 Bft)
21.01.2012 13:15 5,8 C 91 % 994,5 hPa 0,3 l/m 41,1 km/h (6 Bft) N-NW 330 0 min 0 W/m 4,4 C -7,5 C 41,1 km/h (6 Bft)
21.01.2012 13:30 5,4 C 92 % 993,5 hPa 0,0 l/m 31,0 km/h (5 Bft) NW 315 0 min 0 W/m 4,2 C -6,1 C 31,0 km/h (5 Bft)
21.01.2012 13:45 5,4 C 93 % 993,5 hPa 0,0 l/m 26,4 km/h (4 Bft) NW 320 0 min 0 W/m 4,4 C -4,8 C 26,4 km/h (4 Bft)
21.01.2012 14:00 5,4 C 93 % 994,5 hPa 0,0 l/m 22,9 km/h (4 Bft) NW 305 0 min 0 W/m 4,4 C -3,7 C 22,9 km/h (4 Bft)
21.01.2012 14:15 5,5 C 93 % 993,5 hPa 0,0 l/m 24,6 km/h (4 Bft) W-NW 300 0 min 0 W/m 4,5 C -4,1 C 24,6 km/h (4 Bft)
21.01.2012 14:30 5,6 C 94 % 994,5 hPa 0,0 l/m 30,6 km/h (5 Bft) NW 305 0 min 0 W/m 4,7 C -5,7 C 30,6 km/h (5 Bft)
21.01.2012 14:45 5,7 C 94 % 993,5 hPa 0,0 l/m 28,6 km/h (5 Bft) NW 315 0 min 0 W/m 4,8 C -5,0 C 28,6 km/h (5 Bft)
21.01.2012 15:00 5,9 C 94 % 993,5 hPa 0,0 l/m 27,0 km/h (5 Bft) NW 305 0 min 0 W/m 5,0 C -4,3 C 27,0 km/h (5 Bft)
21.01.2012 15:14 5,7 C 93 % 994,5 hPa 0,0 l/m 27,4 km/h (5 Bft) NW 305 0 min 0 W/m 4,7 C -4,7 C 27,4 km/h (5 Bft)
21.01.2012 15:29 5,8 C 92 % 993,5 hPa 0,0 l/m 32,9 km/h (5 Bft) NW 305 0 min 0 W/m 4,6 C -5,9 C 32,9 km/h (5 Bft)
21.01.2012 15:45 5,8 C 91 % 993,5 hPa 0,0 l/m 32,7 km/h (5 Bft) W-NW 300 0 min 0 W/m 4,4 C -5,9 C 32,7 km/h (5 Bft)
21.01.2012 16:00 5,8 C 91 % 993,5 hPa 0,0 l/m 35,6 km/h (5 Bft) NW 305 0 min 0 W/m 4,4 C -6,5 C 35,6 km/h (5 Bft)
21.01.2012 16:15 5,9 C 91 % 993,5 hPa 0,3 l/m 33,0 km/h (5 Bft) NW 310 0 min 0 W/m 4,5 C -5,8 C 33,0 km/h (5 Bft)
21.01.2012 16:30 6,0 C 90 % 993,5 hPa 0,0 l/m 32,4 km/h (5 Bft) NW 315 0 min 0 W/m 4,5 C -5,5 C 32,4 km/h (5 Bft)
21.01.2012 16:45 6,0 C 90 % 993,5 hPa 0,0 l/m 33,7 km/h (5 Bft) NW 310 0 min 0 W/m 4,5 C -5,8 C 33,7 km/h (5 Bft)
21.01.2012 16:59 6,1 C 89 % 993,5 hPa 0,0 l/m 32,9 km/h (5 Bft) W-NW 300 0 min 0 W/m 4,4 C -5,5 C 32,9 km/h (5 Bft)
21.01.2012 17:15 6,0 C 89 % 993,5 hPa 0,0 l/m 43,4 km/h (6 Bft) W-NW 300 0 min 0 W/m 4,3 C -7,6 C 43,4 km/h (6 Bft)
21.01.2012 17:30 5,9 C 90 % 993,5 hPa 0,0 l/m 35,2 km/h (5 Bft) NW 305 0 min 0 W/m 4,4 C -6,3 C 35,2 km/h (5 Bft)
21.01.2012 17:45 6,0 C 89 % 993,5 hPa 0,0 l/m 33,4 km/h (5 Bft) NW 310 0 min 0 W/m 4,3 C -5,8 C 33,4 km/h (5 Bft)
21.01.2012 18:00 5,9 C 88 % 993,5 hPa 0,0 l/m 33,6 km/h (5 Bft) N-NW 345 0 min 0 W/m 4,1 C -5,9 C 33,6 km/h (5 Bft)
21.01.2012 18:15 5,2 C 87 % 993,5 hPa 0,3 l/m 46,0 km/h (6 Bft) N-NW 335 0 min 0 W/m 3,2 C -9,2 C 46,0 km/h (6 Bft)
21.01.2012 18:30 5,3 C 87 % 993,5 hPa 0,0 l/m 37,0 km/h (5 Bft) NW 310 0 min 0 W/m 3,3 C -7,5 C 37,0 km/h (5 Bft)
21.01.2012 18:45 5,8 C 88 % 993,5 hPa 0,0 l/m 36,0 km/h (5 Bft) NW 315 0 min 0 W/m 4,0 C -6,6 C 36,0 km/h (5 Bft)
21.01.2012 19:00 5,9 C 88 % 993,5 hPa 0,0 l/m 35,8 km/h (5 Bft) NW 315 0 min 0 W/m 4,1 C -6,4 C 35,8 km/h (5 Bft)
21.01.2012 19:14 6,0 C 87 % 993,5 hPa 0,0 l/m 33,0 km/h (5 Bft) NW 310 0 min 0 W/m 4,0 C -5,7 C 33,0 km/h (5 Bft)
21.01.2012 19:29 6,0 C 86 % 993,5 hPa 0,0 l/m 44,5 km/h (6 Bft) NW 305 0 min 0 W/m 3,8 C -7,7 C 44,5 km/h (6 Bft)
21.01.2012 19:45 6,0 C 86 % 993,5 hPa 0,0 l/m 34,1 km/h (5 Bft) NW 325 0 min 0 W/m 3,8 C -5,9 C 34,1 km/h (5 Bft)
21.01.2012 20:00 6,0 C 86 % 993,5 hPa 0,0 l/m 40,7 km/h (6 Bft) NW 315 0 min 0 W/m 3,8 C -7,2 C 40,7 km/h (6 Bft)
21.01.2012 20:15 6,0 C 87 % 993,5 hPa 0,0 l/m 35,5 km/h (5 Bft) NW 310 0 min 0 W/m 4,0 C -6,2 C 35,5 km/h (5 Bft)
21.01.2012 20:30 6,0 C 86 % 993,5 hPa 0,0 l/m 39,4 km/h (6 Bft) NW 315 0 min 0 W/m 3,8 C -6,9 C 39,4 km/h (6 Bft)
21.01.2012 20:45 6,1 C 85 % 993,5 hPa 0,0 l/m 37,5 km/h (5 Bft) NW 315 0 min 0 W/m 3,8 C -6,4 C 37,5 km/h (5 Bft)
21.01.2012 20:59 6,2 C 84 % 993,5 hPa 0,0 l/m 45,7 km/h (6 Bft) NW 315 0 min 0 W/m 3,7 C -7,6 C 45,7 km/h (6 Bft)
21.01.2012 21:15 6,2 C 84 % 993,5 hPa 0,0 l/m 41,4 km/h (6 Bft) NW 315 0 min 0 W/m 3,7 C -7,0 C 41,4 km/h (6 Bft)
21.01.2012 21:30 6,3 C 83 % 993,5 hPa 0,0 l/m 40,3 km/h (6 Bft) NW 320 0 min 0 W/m 3,6 C -6,6 C 40,3 km/h (6 Bft)
21.01.2012 21:45 6,4 C 83 % 993,5 hPa 0,0 l/m 46,9 km/h (6 Bft) NW 310 0 min 0 W/m 3,7 C -7,5 C 46,9 km/h (6 Bft)
21.01.2012 22:00 6,4 C 83 % 993,5 hPa 0,0 l/m 47,6 km/h (6 Bft) NW 310 0 min 0 W/m 3,7 C -7,6 C 47,6 km/h (6 Bft)
21.01.2012 22:15 6,1 C 80 % 993,5 hPa 0,0 l/m 48,7 km/h (7 Bft) NW 320 0 min 0 W/m 2,9 C -8,1 C 48,7 km/h (7 Bft)
21.01.2012 22:30 6,0 C 83 % 993,5 hPa 0,0 l/m 35,7 km/h (5 Bft) NW 320 0 min 0 W/m 3,3 C -6,2 C 35,7 km/h (5 Bft)
21.01.2012 22:45 5,4 C 85 % 993,5 hPa 0,3 l/m 50,5 km/h (7 Bft) NW 315 0 min 0 W/m 3,1 C -9,4 C 50,5 km/h (7 Bft)
21.01.2012 23:00 5,2 C 89 % 993,5 hPa 1,2 l/m 47,5 km/h (6 Bft) N-NW 330 0 min 0 W/m 3,5 C -9,4 C 47,5 km/h (6 Bft)
21.01.2012 23:14 4,5 C 88 % 993,5 hPa 0,3 l/m 41,4 km/h (6 Bft) NW 315 0 min 0 W/m 2,7 C -9,5 C 41,4 km/h (6 Bft)
21.01.2012 23:29 4,5 C 88 % 993,5 hPa 0,0 l/m 30,2 km/h (5 Bft) NW 320 0 min 0 W/m 2,7 C -7,1 C 30,2 km/h (5 Bft)
21.01.2012 23:45 4,8 C 89 % 993,5 hPa 0,0 l/m 30,7 km/h (5 Bft) N-NW 330 0 min 0 W/m 3,1 C -6,8 C 30,7 km/h (5 Bft)
_ Min-Zeit 08:45 22:15 12:30 - 02:30 - - - - 08:45 10:00 02:30
Minimum _ 2,4 C 80 % 993,5 hPa - 7,6 km/h (2 Bft) - - - - 0,9 C -11,4 C 7,6 km/h (2 Bft)
_ Max-Zeit 12:15 11:29 00:00 23:00 22:45 - - 00:00 00:00 12:15 02:30 22:45
Maximum _ 6,6 C 96 % 1009,5 hPa 1,2 l/m 50,5 km/h
NW (7 Bft)
- - 0 min 0 W/m 6,0 C 3,2 C 50,5 km/h
NW (7 Bft)
Durchschnitt _ 4,8 C 90 % 998,8 hPa #7,2 l/m 31,1 km/h (5 Bft) NW - #0 min. 0 W/m 3,3 C -6,4 C 31,1 km/h (5 Bft)
copyright by Holger Just